Time;durP1;ratioP1;P1;durP2;ratioP2;P2;SDS_P1;SDS_P2;PMS_P1;PMS_P2;Temp;Humidity;BMP_temperature;BMP_pressure;BME280_temperature;BME280_humidity;BME280_pressure;Samples;Min_cycle;Max_cycle;Signal;HPM_P1;HPM_P2
2022/02/26 00:00:58;;;;;;;;;;;1.50;99.90;;;;;;5006567;28;20414;-89
2022/02/26 00:03:24;;;;;;;;;;;1.50;99.90;;;;;;5021061;28;19924;-87
2022/02/26 00:05:50;;;;;;;;;;;1.50;99.90;;;;;;5025452;28;19949;-89
2022/02/26 00:08:15;;;;;;;;;;;1.50;99.90;;;;;;5012482;28;20020;-88
2022/02/26 00:10:41;;;;;;;;;;;1.50;99.90;;;;;;5028948;28;20280;-87
2022/02/26 00:13:07;;;;;;;;;;;1.50;99.90;;;;;;5002172;28;19917;-88
2022/02/26 00:15:32;;;;;;;;;;;1.50;99.90;;;;;;5034612;28;20040;-86
2022/02/26 00:18:00;;;;;;;;;;;1.50;99.90;;;;;;4994527;28;19917;-88
2022/02/26 00:20:26;;;;;;;;;;;1.50;99.90;;;;;;4992045;28;19925;-86
2022/02/26 00:22:51;;;;;;;;;;;1.50;99.90;;;;;;5026912;28;19925;-88
2022/02/26 00:25:17;;;;;;;;;;;1.50;99.90;;;;;;5001817;28;19928;-88
2022/02/26 00:27:42;;;;;;;;;;;1.50;99.90;;;;;;5000905;28;19921;-90
2022/02/26 00:30:08;;;;;;;;;;;1.50;99.90;;;;;;5015202;28;19913;-87
2022/02/26 00:32:34;;;;;;;;;;;1.50;99.90;;;;;;5031160;28;20016;-88
2022/02/26 00:35:00;;;;;;;;;;;1.50;99.90;;;;;;5015933;28;19917;-87
2022/02/26 00:37:25;;;;;;;;;;;1.50;99.90;;;;;;5015781;28;19920;-88
2022/02/26 00:39:51;;;;;;;;;;;1.50;99.90;;;;;;5019638;28;19929;-87
2022/02/26 00:42:17;;;;;;;;;;;1.50;99.90;;;;;;4991175;28;19917;-86
2022/02/26 00:44:42;;;;;;;;;;;1.50;99.90;;;;;;5025996;28;20543;-88
2022/02/26 00:47:08;;;;;;;;;;;1.50;99.90;;;;;;4996959;28;20011;-85
2022/02/26 00:49:47;;;;;;;;;;;1.50;99.90;;;;;;5030528;28;19921;-87
2022/02/26 00:52:17;;;;;;;;;;;1.50;99.90;;;;;;5017397;28;19921;-87
2022/02/26 00:54:43;;;;;;;;;;;1.50;99.90;;;;;;5033795;28;19952;-88
2022/02/26 00:57:09;;;;;;;;;;;1.50;99.90;;;;;;5033476;28;19913;-87
2022/02/26 00:59:34;;;;;;;;;;;1.50;99.90;;;;;;5030016;28;20430;-86
2022/02/26 01:02:00;;;;;;;;;;;1.50;99.90;;;;;;5012294;28;19924;-88
2022/02/26 01:04:26;;;;;;;;;;;1.50;99.90;;;;;;5016861;28;19917;-88
2022/02/26 01:06:52;;;;;;;;;;;1.50;99.90;;;;;;5000738;28;19921;-88
2022/02/26 01:09:17;;;;;;;;;;;1.50;99.90;;;;;;5000353;28;19971;-88
2022/02/26 01:11:43;;;;;;;;;;;1.50;99.90;;;;;;5013462;28;20272;-88
2022/02/26 01:14:09;;;;;;;;;;;1.50;99.90;;;;;;4998997;28;19960;-89
2022/02/26 01:16:35;;;;;;;;;;;1.40;99.90;;;;;;5011765;28;19921;-87
2022/02/26 01:19:02;;;;;;;;;;;1.40;99.90;;;;;;5029220;28;19980;-87
2022/02/26 01:21:28;;;;;;;;;;;1.40;99.90;;;;;;5013136;28;19918;-86
2022/02/26 01:23:54;;;;;;;;;;;1.40;99.90;;;;;;5030392;28;20011;-86
2022/02/26 01:26:20;;;;;;;;;;;1.30;99.90;;;;;;4999138;28;20036;-86
2022/02/26 01:28:46;;;;;;;;;;;1.30;99.90;;;;;;5032422;28;19913;-86
2022/02/26 01:31:12;;;;;;;;;;;1.20;99.90;;;;;;5033614;28;20295;-87
2022/02/26 01:33:38;;;;;;;;;;;1.20;99.90;;;;;;5029086;28;20000;-86
2022/02/26 01:36:03;;;;;;;;;;;1.20;99.90;;;;;;5030886;28;19964;-87
2022/02/26 01:38:29;;;;;;;;;;;1.20;99.90;;;;;;4998859;28;19960;-87
2022/02/26 01:40:55;;;;;;;;;;;1.20;99.90;;;;;;5015630;28;19952;-86
2022/02/26 01:43:20;;;;;;;;;;;1.20;99.90;;;;;;5015474;28;19921;-86
2022/02/26 01:45:46;;;;;;;;;;;1.20;99.90;;;;;;5012305;28;20474;-86
2022/02/26 01:48:12;;;;;;;;;;;1.20;99.90;;;;;;4998509;28;20008;-86
2022/02/26 01:50:37;;;;;;;;;;;1.20;99.90;;;;;;5015450;28;19920;-87
2022/02/26 01:53:04;;;;;;;;;;;1.20;99.90;;;;;;5006926;28;19917;-86
2022/02/26 01:55:31;;;;;;;;;;;1.20;99.90;;;;;;5011538;28;20004;-86
2022/02/26 01:57:56;;;;;;;;;;;1.20;99.90;;;;;;5025246;28;19964;-86
2022/02/26 02:00:22;;;;;;;;;;;1.20;99.90;;;;;;4996825;28;19917;-86
2022/02/26 02:02:50;;;;;;;;;;;1.20;99.90;;;;;;5029281;28;19917;-87
2022/02/26 02:05:15;;;;;;;;;;;1.20;99.90;;;;;;5009983;28;20395;-86
2022/02/26 02:07:41;;;;;;;;;;;1.20;99.90;;;;;;5014478;28;20372;-86
2022/02/26 02:10:07;;;;;;;;;;;1.20;99.90;;;;;;5015320;28;19917;-86
2022/02/26 02:12:33;;;;;;;;;;;1.10;99.90;;;;;;5015059;28;19952;-85
2022/02/26 02:14:58;;;;;;;;;;;1.10;99.90;;;;;;5015623;28;19913;-86
2022/02/26 02:17:24;;;;;;;;;;;1.10;99.90;;;;;;5030580;28;19921;-84
2022/02/26 02:19:50;;;;;;;;;;;1.10;99.90;;;;;;4995263;28;20012;-84
2022/02/26 02:22:16;;;;;;;;;;;1.00;99.90;;;;;;4994998;28;20360;-85
2022/02/26 02:24:42;;;;;;;;;;;1.10;99.90;;;;;;5011818;28;19914;-86
2022/02/26 02:27:08;;;;;;;;;;;1.00;99.90;;;;;;5046636;28;19924;-86
2022/02/26 02:29:34;;;;;;;;;;;0.90;99.90;;;;;;5030398;28;19913;-85
2022/02/26 02:31:59;;;;;;;;;;;0.90;99.90;;;;;;5027643;28;20044;-85
2022/02/26 02:34:25;;;;;;;;;;;0.90;99.90;;;;;;5017118;28;20593;-86
2022/02/26 02:36:50;;;;;;;;;;;0.90;99.90;;;;;;5001430;28;19925;-85
2022/02/26 02:39:16;;;;;;;;;;;0.90;99.90;;;;;;5001571;28;20379;-85
2022/02/26 02:41:42;;;;;;;;;;;1.00;99.90;;;;;;5030016;28;20018;-87
2022/02/26 02:44:10;;;;;;;;;;;1.00;99.90;;;;;;5018028;28;20007;-85
2022/02/26 02:46:36;;;;;;;;;;;1.00;99.90;;;;;;5002832;28;20339;-84
2022/02/26 02:49:01;;;;;;;;;;;1.00;99.90;;;;;;5041806;28;19925;-85
2022/02/26 02:51:27;;;;;;;;;;;1.00;99.90;;;;;;5029846;28;20379;-86
2022/02/26 02:53:52;;;;;;;;;;;1.10;99.90;;;;;;5018323;28;20372;-86
2022/02/26 02:56:18;;;;;;;;;;;1.10;99.90;;;;;;5014680;28;19925;-85
2022/02/26 02:58:44;;;;;;;;;;;1.10;99.90;;;;;;5023950;28;20012;-86
2022/02/26 03:01:09;;;;;;;;;;;1.10;99.90;;;;;;5014308;28;19914;-85
2022/02/26 03:03:35;;;;;;;;;;;1.20;99.90;;;;;;5014213;28;20307;-86
2022/02/26 03:06:01;;;;;;;;;;;1.20;99.90;;;;;;4997668;28;20379;-85
2022/02/26 03:08:26;;;;;;;;;;;1.20;99.90;;;;;;5049601;28;19913;-85
2022/02/26 03:10:53;;;;;;;;;;;1.20;99.90;;;;;;4995351;28;19920;-85
2022/02/26 03:13:20;;;;;;;;;;;1.20;99.90;;;;;;5020895;28;19959;-85
2022/02/26 03:15:46;;;;;;;;;;;1.20;99.90;;;;;;5033451;28;19917;-85
2022/02/26 03:18:11;;;;;;;;;;;1.20;99.90;;;;;;5010105;28;19999;-85
2022/02/26 03:20:38;;;;;;;;;;;1.20;99.90;;;;;;5014517;28;19917;-87
2022/02/26 03:23:03;;;;;;;;;;;1.20;99.90;;;;;;5027126;28;19920;-87
2022/02/26 03:25:30;;;;;;;;;;;1.20;99.90;;;;;;5030676;28;19914;-86
2022/02/26 03:27:56;;;;;;;;;;;1.20;99.90;;;;;;5033814;28;19921;-85
2022/02/26 03:30:21;;;;;;;;;;;1.20;99.90;;;;;;5034181;28;19913;-86
2022/02/26 03:32:47;;;;;;;;;;;1.20;99.90;;;;;;5017591;28;19924;-86
2022/02/26 03:35:13;;;;;;;;;;;1.20;99.90;;;;;;5033859;28;20008;-85
2022/02/26 03:37:38;;;;;;;;;;;1.20;99.90;;;;;;5016979;28;20012;-86
2022/02/26 03:40:05;;;;;;;;;;;1.20;99.90;;;;;;5017450;28;19936;-84
2022/02/26 03:42:31;;;;;;;;;;;1.20;99.90;;;;;;5016942;28;20299;-85
2022/02/26 03:44:57;;;;;;;;;;;1.20;99.90;;;;;;5015713;28;19924;-86
2022/02/26 03:47:23;;;;;;;;;;;1.20;99.90;;;;;;5032819;28;19917;-85
2022/02/26 03:49:49;;;;;;;;;;;1.20;99.90;;;;;;5033566;28;19913;-86
2022/02/26 03:52:15;;;;;;;;;;;1.20;99.90;;;;;;4989024;28;19917;-87
2022/02/26 03:54:41;;;;;;;;;;;1.20;99.90;;;;;;5020733;28;19914;-87
2022/02/26 03:57:07;;;;;;;;;;;1.20;99.90;;;;;;5032818;28;19920;-86
2022/02/26 03:59:37;;;;;;;;;;;1.20;99.90;;;;;;5016404;28;20008;-85
2022/02/26 04:02:03;;;;;;;;;;;1.20;99.90;;;;;;5033533;28;19913;-85
2022/02/26 04:04:28;;;;;;;;;;;1.20;99.90;;;;;;5000643;28;20021;-84
2022/02/26 04:06:55;;;;;;;;;;;1.30;99.90;;;;;;5016365;28;19991;-85
2022/02/26 04:09:22;;;;;;;;;;;1.20;99.90;;;;;;5011998;28;19937;-85
2022/02/26 04:11:48;;;;;;;;;;;1.20;99.90;;;;;;4997207;28;19918;-84
2022/02/26 04:14:13;;;;;;;;;;;1.30;99.90;;;;;;5007194;28;19918;-86
2022/02/26 04:16:39;;;;;;;;;;;1.30;99.90;;;;;;5013199;28;19980;-87
2022/02/26 04:19:05;;;;;;;;;;;1.30;99.90;;;;;;5012948;28;19924;-86
2022/02/26 04:21:31;;;;;;;;;;;1.30;99.90;;;;;;5035546;28;20358;-85
2022/02/26 04:23:58;;;;;;;;;;;1.20;99.90;;;;;;4999613;28;19917;-84
2022/02/26 04:26:24;;;;;;;;;;;1.20;99.90;;;;;;5032297;28;20422;-87
2022/02/26 04:28:50;;;;;;;;;;;1.20;99.90;;;;;;4999733;28;20390;-87
2022/02/26 04:31:15;;;;;;;;;;;1.20;99.90;;;;;;5033349;28;19959;-86
2022/02/26 04:33:41;;;;;;;;;;;1.20;99.90;;;;;;5016360;28;19920;-86
2022/02/26 04:36:08;;;;;;;;;;;1.30;99.90;;;;;;5016187;28;20360;-87
2022/02/26 04:38:35;;;;;;;;;;;1.30;99.90;;;;;;4992135;28;20417;-88
2022/02/26 04:41:01;;;;;;;;;;;1.30;99.90;;;;;;5001883;28;20007;-87
2022/02/26 04:43:27;;;;;;;;;;;1.30;99.90;;;;;;5013060;28;19920;-85
2022/02/26 04:45:53;;;;;;;;;;;1.20;99.90;;;;;;5012396;28;19917;-86
2022/02/26 04:48:18;;;;;;;;;;;1.20;99.90;;;;;;4994211;28;19940;-84
2022/02/26 04:50:44;;;;;;;;;;;1.20;99.90;;;;;;5015972;28;19913;-86
2022/02/26 04:53:10;;;;;;;;;;;1.20;99.90;;;;;;5018083;28;20555;-86
2022/02/26 04:55:35;;;;;;;;;;;1.20;99.90;;;;;;5016591;28;20390;-86
2022/02/26 04:58:01;;;;;;;;;;;1.20;99.90;;;;;;5011118;28;19992;-86
2022/02/26 05:00:27;;;;;;;;;;;1.20;99.90;;;;;;4989781;28;19924;-87
2022/02/26 05:02:52;;;;;;;;;;;1.20;99.90;;;;;;5019179;28;19920;-86
2022/02/26 05:05:18;;;;;;;;;;;1.20;99.90;;;;;;5020331;28;20012;-86
2022/02/26 05:07:44;;;;;;;;;;;1.20;99.90;;;;;;5003397;28;19921;-86
2022/02/26 05:10:09;;;;;;;;;;;1.20;99.90;;;;;;5015565;28;20010;-85
2022/02/26 05:12:35;;;;;;;;;;;1.20;99.90;;;;;;5032218;28;19913;-85
2022/02/26 05:15:01;;;;;;;;;;;1.20;99.90;;;;;;4999420;28;19924;-87
2022/02/26 05:17:27;;;;;;;;;;;1.20;99.90;;;;;;5032387;28;20661;-87
2022/02/26 05:22:24;;;;;;;;;;;1.20;99.90;;;;;;5025933;28;19979;-81
2022/02/26 05:24:49;;;;;;;;;;;1.20;99.90;;;;;;5051974;28;19917;-81
2022/02/26 05:27:15;;;;;;;;;;;1.20;99.90;;;;;;5030749;28;20368;-81
2022/02/26 05:29:40;;;;;;;;;;;1.20;99.90;;;;;;5031457;28;19995;-81
2022/02/26 05:32:06;;;;;;;;;;;1.20;99.90;;;;;;5033005;28;19917;-81
2022/02/26 05:34:32;;;;;;;;;;;1.20;99.90;;;;;;5031204;28;19940;-81
2022/02/26 05:36:57;;;;;;;;;;;1.20;99.90;;;;;;5030848;28;19917;-81
2022/02/26 05:39:23;;;;;;;;;;;1.20;99.90;;;;;;5017308;28;19917;-81
2022/02/26 05:41:49;;;;;;;;;;;1.20;99.90;;;;;;5032281;28;19917;-81
2022/02/26 05:44:14;;;;;;;;;;;1.20;99.90;;;;;;5066616;28;19976;-81
2022/02/26 05:46:40;;;;;;;;;;;1.10;99.90;;;;;;5040109;28;19992;-82
2022/02/26 05:49:06;;;;;;;;;;;1.20;99.90;;;;;;5013115;28;20421;-81
2022/02/26 05:51:31;;;;;;;;;;;1.20;99.90;;;;;;5054333;28;19917;-81
2022/02/26 05:53:57;;;;;;;;;;;1.20;99.90;;;;;;5059350;28;20368;-81
2022/02/26 05:56:23;;;;;;;;;;;1.20;99.90;;;;;;5028134;28;19924;-81
2022/02/26 05:58:48;;;;;;;;;;;1.20;99.90;;;;;;5022638;28;20402;-81
2022/02/26 06:01:14;;;;;;;;;;;1.20;99.90;;;;;;5030026;28;19917;-81
2022/02/26 06:03:40;;;;;;;;;;;1.20;99.90;;;;;;5020849;28;19924;-81
2022/02/26 06:06:05;;;;;;;;;;;1.20;99.90;;;;;;5060892;28;19950;-81
2022/02/26 06:08:31;;;;;;;;;;;1.20;99.90;;;;;;5040627;28;20294;-81
2022/02/26 06:10:56;;;;;;;;;;;1.20;99.90;;;;;;5037356;28;19962;-81
2022/02/26 06:13:22;;;;;;;;;;;1.20;99.90;;;;;;5034191;28;19917;-81
2022/02/26 06:15:48;;;;;;;;;;;1.20;99.90;;;;;;5033547;28;19917;-81
2022/02/26 06:18:14;;;;;;;;;;;1.20;99.90;;;;;;5036633;28;19916;-81
2022/02/26 06:20:39;;;;;;;;;;;1.20;99.90;;;;;;5036422;28;19922;-81
2022/02/26 06:23:05;;;;;;;;;;;1.20;99.90;;;;;;5027114;28;19917;-81
2022/02/26 06:25:31;;;;;;;;;;;1.20;99.90;;;;;;5057855;28;20023;-81
2022/02/26 06:27:56;;;;;;;;;;;1.20;99.90;;;;;;5049990;28;19951;-81
2022/02/26 06:30:22;;;;;;;;;;;1.20;99.90;;;;;;5017199;28;19949;-81
2022/02/26 06:32:47;;;;;;;;;;;1.20;99.90;;;;;;5046658;28;19921;-81
2022/02/26 06:35:13;;;;;;;;;;;1.20;99.90;;;;;;5045781;28;19924;-81
2022/02/26 06:37:39;;;;;;;;;;;1.20;99.90;;;;;;5044300;28;20439;-81
2022/02/26 06:40:05;;;;;;;;;;;1.20;99.90;;;;;;5034421;28;19920;-81
2022/02/26 06:42:31;;;;;;;;;;;1.20;99.90;;;;;;5043599;28;20044;-81
2022/02/26 06:44:57;;;;;;;;;;;1.20;99.90;;;;;;5040291;28;20003;-81
2022/02/26 06:47:22;;;;;;;;;;;1.20;99.90;;;;;;5033359;28;20812;-81
2022/02/26 06:49:48;;;;;;;;;;;1.20;99.90;;;;;;5047393;28;19936;-81
2022/02/26 06:52:14;;;;;;;;;;;1.20;99.90;;;;;;5035271;28;20581;-81
2022/02/26 06:54:40;;;;;;;;;;;1.20;99.90;;;;;;5040007;28;19924;-81
2022/02/26 06:57:05;;;;;;;;;;;1.20;99.90;;;;;;5025444;28;19957;-81
2022/02/26 06:59:31;;;;;;;;;;;1.20;99.90;;;;;;5036887;28;19919;-81
2022/02/26 07:01:57;;;;;;;;;;;1.20;99.90;;;;;;5064886;28;19913;-82
2022/02/26 07:04:22;;;;;;;;;;;1.30;99.90;;;;;;5032647;28;19956;-81
2022/02/26 07:06:48;;;;;;;;;;;1.30;99.90;;;;;;5035833;28;20433;-81
2022/02/26 07:09:15;;;;;;;;;;;1.30;99.90;;;;;;5022994;28;19918;-81
2022/02/26 07:11:41;;;;;;;;;;;1.30;99.90;;;;;;5014476;28;19916;-81
2022/02/26 07:14:07;;;;;;;;;;;1.30;99.90;;;;;;5026111;28;20322;-81
2022/02/26 07:16:33;;;;;;;;;;;1.40;99.90;;;;;;5032091;28;20196;-81
2022/02/26 07:19:00;;;;;;;;;;;1.40;99.90;;;;;;5032162;28;19913;-81
2022/02/26 07:21:26;;;;;;;;;;;1.40;99.90;;;;;;5032048;28;20409;-81
2022/02/26 07:23:53;;;;;;;;;;;1.40;99.90;;;;;;5028868;28;20012;-81
2022/02/26 07:26:19;;;;;;;;;;;1.40;99.90;;;;;;5015788;28;20283;-81
2022/02/26 07:28:45;;;;;;;;;;;1.50;99.90;;;;;;5028356;28;19916;-81
2022/02/26 07:31:10;;;;;;;;;;;1.50;99.90;;;;;;5046400;28;19953;-80
2022/02/26 07:33:36;;;;;;;;;;;1.50;99.90;;;;;;5047352;28;20004;-81
2022/02/26 07:36:01;;;;;;;;;;;1.50;99.90;;;;;;5046147;28;19921;-81
2022/02/26 07:38:27;;;;;;;;;;;1.60;99.90;;;;;;5015541;28;19917;-80
2022/02/26 07:40:53;;;;;;;;;;;1.60;99.90;;;;;;5031776;28;19968;-81
2022/02/26 07:43:18;;;;;;;;;;;1.60;99.90;;;;;;5037730;28;19921;-81
2022/02/26 07:45:44;;;;;;;;;;;1.70;99.90;;;;;;5028906;28;19996;-81
2022/02/26 07:48:10;;;;;;;;;;;1.70;99.90;;;;;;5030913;28;19918;-81
2022/02/26 07:50:35;;;;;;;;;;;1.70;99.90;;;;;;5040395;28;19963;-80
2022/02/26 07:53:01;;;;;;;;;;;1.70;99.90;;;;;;5032167;28;19913;-81
2022/02/26 07:55:26;;;;;;;;;;;1.70;99.90;;;;;;5048838;28;20267;-80
2022/02/26 07:57:52;;;;;;;;;;;1.70;99.90;;;;;;5027455;28;19955;-81
2022/02/26 08:00:18;;;;;;;;;;;1.70;99.90;;;;;;5030856;28;20299;-81
2022/02/26 08:02:44;;;;;;;;;;;1.80;99.90;;;;;;5048688;28;19924;-81
2022/02/26 08:05:10;;;;;;;;;;;1.80;99.90;;;;;;5046642;28;19936;-81
2022/02/26 08:07:35;;;;;;;;;;;1.90;99.90;;;;;;5029715;28;19924;-80
2022/02/26 08:10:02;;;;;;;;;;;1.90;99.90;;;;;;5022673;28;19918;-80
2022/02/26 08:12:28;;;;;;;;;;;2.00;99.90;;;;;;5033129;28;19917;-81
2022/02/26 08:14:54;;;;;;;;;;;2.00;99.90;;;;;;5028752;28;20269;-81
2022/02/26 08:17:20;;;;;;;;;;;2.10;99.90;;;;;;5026076;28;19920;-81
2022/02/26 08:19:46;;;;;;;;;;;2.10;99.90;;;;;;5038257;28;19921;-81
2022/02/26 08:22:11;;;;;;;;;;;2.20;99.90;;;;;;5034459;28;19927;-81
2022/02/26 08:24:37;;;;;;;;;;;2.20;99.90;;;;;;5042061;28;20007;-81
2022/02/26 08:27:03;;;;;;;;;;;2.30;99.90;;;;;;5028157;28;19921;-81
2022/02/26 08:29:29;;;;;;;;;;;2.40;99.90;;;;;;5030975;28;19909;-81
2022/02/26 08:31:55;;;;;;;;;;;2.40;99.90;;;;;;5029476;28;19919;-81
2022/02/26 08:34:22;;;;;;;;;;;2.50;99.90;;;;;;5035176;28;19921;-81
2022/02/26 08:36:48;;;;;;;;;;;2.60;99.90;;;;;;5027880;28;19922;-81
2022/02/26 08:39:14;;;;;;;;;;;2.60;99.90;;;;;;5043380;28;19971;-81
2022/02/26 08:41:39;;;;;;;;;;;2.80;99.90;;;;;;5042039;28;19920;-81
2022/02/26 08:44:05;;;;;;;;;;;2.80;99.90;;;;;;5037562;28;19921;-80
2022/02/26 08:46:31;;;;;;;;;;;2.90;99.90;;;;;;5037805;28;19917;-81
2022/02/26 08:48:57;;;;;;;;;;;3.00;99.90;;;;;;5032016;28;19918;-81
2022/02/26 08:51:23;;;;;;;;;;;3.00;99.90;;;;;;5025380;28;19947;-81
2022/02/26 08:53:49;;;;;;;;;;;3.10;99.90;;;;;;5025660;28;19913;-80
2022/02/26 08:56:14;;;;;;;;;;;3.10;99.90;;;;;;5021141;28;19924;-81
2022/02/26 08:58:40;;;;;;;;;;;3.20;99.90;;;;;;5044679;28;19933;-81
2022/02/26 09:01:05;;;;;;;;;;;3.20;99.90;;;;;;5037449;28;19921;-80
2022/02/26 09:03:31;;;;;;;;;;;3.30;99.90;;;;;;5044447;28;19917;-81
2022/02/26 09:05:56;;;;;;;;;;;3.30;99.90;;;;;;5037640;28;19920;-81
2022/02/26 09:08:22;;;;;;;;;;;3.30;99.90;;;;;;5047170;28;20007;-81
2022/02/26 09:10:48;;;;;;;;;;;3.40;99.90;;;;;;5036869;28;19921;-81
2022/02/26 09:13:13;;;;;;;;;;;3.40;99.90;;;;;;5043970;28;19919;-81
2022/02/26 09:15:39;;;;;;;;;;;3.40;99.90;;;;;;5024319;28;20346;-81
2022/02/26 09:18:04;;;;;;;;;;;3.40;99.90;;;;;;5031215;28;19921;-81
2022/02/26 09:20:30;;;;;;;;;;;3.40;99.90;;;;;;5032961;28;19943;-81
2022/02/26 09:22:56;;;;;;;;;;;3.40;99.90;;;;;;5022415;28;20312;-81
2022/02/26 09:25:21;;;;;;;;;;;3.40;99.90;;;;;;5010298;28;19922;-80
2022/02/26 09:27:47;;;;;;;;;;;3.40;99.90;;;;;;5025049;28;19921;-81
2022/02/26 09:30:13;;;;;;;;;;;3.40;99.90;;;;;;5027265;28;19924;-80
2022/02/26 09:32:39;;;;;;;;;;;3.40;99.90;;;;;;5021921;28;20000;-81
2022/02/26 09:35:06;;;;;;;;;;;3.40;99.90;;;;;;5023106;28;19913;-81
2022/02/26 09:37:32;;;;;;;;;;;3.40;99.90;;;;;;5030945;28;19925;-81
2022/02/26 09:40:00;;;;;;;;;;;3.40;99.90;;;;;;5046131;28;19917;-81
2022/02/26 09:42:27;;;;;;;;;;;3.50;99.90;;;;;;5046390;28;19917;-81
2022/02/26 09:44:53;;;;;;;;;;;3.60;99.90;;;;;;5026854;28;19920;-81
2022/02/26 09:47:19;;;;;;;;;;;3.70;99.90;;;;;;5021943;28;19928;-81
2022/02/26 09:49:44;;;;;;;;;;;3.70;99.90;;;;;;5028717;28;19913;-81
2022/02/26 09:52:11;;;;;;;;;;;3.80;99.90;;;;;;5027475;28;19928;-81
2022/02/26 09:54:36;;;;;;;;;;;3.80;99.90;;;;;;5022954;28;20033;-81
2022/02/26 09:57:02;;;;;;;;;;;3.80;99.90;;;;;;5034841;28;19948;-81
2022/02/26 09:59:28;;;;;;;;;;;3.90;99.90;;;;;;5045244;28;19917;-79
2022/02/26 10:01:57;;;;;;;;;;;4.00;99.90;;;;;;5044511;28;19913;-81
2022/02/26 10:04:23;;;;;;;;;;;4.10;99.90;;;;;;5034465;28;19919;-81
2022/02/26 10:06:49;;;;;;;;;;;4.10;99.90;;;;;;5033159;28;19917;-81
2022/02/26 10:09:15;;;;;;;;;;;4.30;99.90;;;;;;5030528;28;19913;-81
2022/02/26 10:11:42;;;;;;;;;;;4.40;99.90;;;;;;5025546;28;20356;-81
2022/02/26 10:14:15;;;;;;;;;;;4.40;99.90;;;;;;5033235;28;19970;-82
2022/02/26 10:16:44;;;;;;;;;;;4.50;99.90;;;;;;5047516;28;20459;-81
2022/02/26 10:19:10;;;;;;;;;;;4.60;99.90;;;;;;5036506;28;20335;-81
2022/02/26 10:21:41;;;;;;;;;;;4.60;99.90;;;;;;5048853;28;19971;-82
2022/02/26 10:24:07;;;;;;;;;;;4.70;99.90;;;;;;5025596;28;20264;-82
2022/02/26 10:26:33;;;;;;;;;;;4.80;99.90;;;;;;5031085;28;19924;-81
2022/02/26 10:29:09;;;;;;;;;;;4.90;99.90;;;;;;5034866;28;20450;-80
2022/02/26 10:32:01;;;;;;;;;;;5.00;99.90;;;;;;5040198;28;19917;-82
2022/02/26 10:34:28;;;;;;;;;;;5.10;99.90;;;;;;5049162;28;19914;-80
2022/02/26 10:37:00;;;;;;;;;;;5.20;99.90;;;;;;5056568;28;19956;-82
2022/02/26 10:39:29;;;;;;;;;;;5.10;99.90;;;;;;5053663;28;19925;-81
2022/02/26 10:41:54;;;;;;;;;;;5.10;99.90;;;;;;5044155;28;21308;-81
2022/02/26 10:44:20;;;;;;;;;;;5.10;99.90;;;;;;5025862;28;20012;-80
2022/02/26 10:46:46;;;;;;;;;;;5.10;99.90;;;;;;5024229;28;19921;-81
2022/02/26 10:49:15;;;;;;;;;;;5.00;99.90;;;;;;5038333;28;20433;-81
2022/02/26 10:51:41;;;;;;;;;;;5.00;99.90;;;;;;5040712;28;19952;-81
2022/02/26 10:54:09;;;;;;;;;;;5.00;99.90;;;;;;5023056;28;19960;-81
2022/02/26 10:56:37;;;;;;;;;;;5.00;99.90;;;;;;5059867;28;19959;-82
2022/02/26 10:59:04;;;;;;;;;;;4.90;99.90;;;;;;5032543;28;19983;-81
2022/02/26 11:01:30;;;;;;;;;;;4.90;99.90;;;;;;5031968;28;20379;-81
2022/02/26 11:03:56;;;;;;;;;;;4.90;99.90;;;;;;5039124;28;19966;-81
2022/02/26 11:06:23;;;;;;;;;;;4.90;99.90;;;;;;5062657;28;20011;-81
2022/02/26 11:08:49;;;;;;;;;;;4.90;99.90;;;;;;5066707;28;19913;-81
2022/02/26 11:11:16;;;;;;;;;;;4.90;99.90;;;;;;5047645;28;19924;-82
2022/02/26 11:13:42;;;;;;;;;;;4.80;99.90;;;;;;5040601;28;19917;-81
2022/02/26 11:16:09;;;;;;;;;;;4.70;99.90;;;;;;5029823;28;19924;-81
2022/02/26 11:18:40;;;;;;;;;;;4.70;99.90;;;;;;5026643;28;19913;-82
2022/02/26 11:21:08;;;;;;;;;;;4.60;99.90;;;;;;5043878;28;19932;-81
2022/02/26 11:23:34;;;;;;;;;;;4.60;99.90;;;;;;5030606;28;20280;-81
2022/02/26 11:26:00;;;;;;;;;;;4.50;99.90;;;;;;5054974;28;19917;-81
2022/02/26 11:28:27;;;;;;;;;;;4.40;99.90;;;;;;5025174;28;19925;-81
2022/02/26 11:30:58;;;;;;;;;;;4.40;99.90;;;;;;5038070;28;19943;-81
2022/02/26 11:33:24;;;;;;;;;;;4.50;99.90;;;;;;5042034;28;20374;-81
2022/02/26 11:35:51;;;;;;;;;;;4.60;99.90;;;;;;5047248;28;20551;-80
2022/02/26 11:38:17;;;;;;;;;;;4.70;99.90;;;;;;5030361;28;20172;-80
2022/02/26 11:40:43;;;;;;;;;;;4.70;99.90;;;;;;5032221;28;20008;-81
2022/02/26 11:43:28;;;;;;;;;;;4.80;99.90;;;;;;5032223;28;20003;-81
2022/02/26 11:45:54;;;;;;;;;;;4.80;99.90;;;;;;5040938;28;19913;-82
2022/02/26 11:48:19;;;;;;;;;;;4.90;99.90;;;;;;5039805;28;19917;-81
2022/02/26 11:50:45;;;;;;;;;;;5.00;99.90;;;;;;5031298;28;19917;-81
2022/02/26 11:53:14;;;;;;;;;;;5.00;99.90;;;;;;5030148;28;19918;-81
2022/02/26 11:55:50;;;;;;;;;;;5.10;99.90;;;;;;5027644;28;19914;-80
2022/02/26 11:58:17;;;;;;;;;;;5.20;99.90;;;;;;5025028;28;19921;-81
2022/02/26 12:00:42;;;;;;;;;;;5.20;99.90;;;;;;5026353;28;20012;-80
2022/02/26 12:03:37;;;;;;;;;;;5.30;99.90;;;;;;5043492;28;20380;-81
2022/02/26 12:06:09;;;;;;;;;;;5.30;99.90;;;;;;5036509;28;20294;-81
2022/02/26 12:08:44;;;;;;;;;;;5.40;99.90;;;;;;5039262;28;20007;-81
2022/02/26 12:11:13;;;;;;;;;;;5.50;99.90;;;;;;5037275;28;19913;-81
2022/02/26 12:13:40;;;;;;;;;;;5.60;99.90;;;;;;5031264;28;19918;-81
2022/02/26 12:16:25;;;;;;;;;;;5.70;99.90;;;;;;5031729;28;20382;-81
2022/02/26 12:18:58;;;;;;;;;;;5.70;99.90;;;;;;5058703;28;19949;-81
2022/02/26 12:21:29;;;;;;;;;;;5.80;99.90;;;;;;4957297;28;1862522;-81
2022/02/26 12:24:12;;;;;;;;;;;5.80;99.90;;;;;;5029673;28;20000;-81
2022/02/26 12:26:48;;;;;;;;;;;5.70;99.90;;;;;;5028226;28;19948;-81
2022/02/26 12:29:36;;;;;;;;;;;5.70;99.90;;;;;;5046575;28;19952;-81
2022/02/26 12:32:07;;;;;;;;;;;5.60;99.90;;;;;;5035592;28;20356;-81
2022/02/26 12:34:37;;;;;;;;;;;5.50;99.90;;;;;;5032882;28;19937;-81
2022/02/26 12:37:13;;;;;;;;;;;5.50;99.90;;;;;;5077421;22;19932;-79
2022/02/26 12:39:39;;;;;;;;;;;5.40;99.90;;;;;;5054872;28;20054;-79
2022/02/26 12:42:08;;;;;;;;;;;5.40;99.90;;;;;;5054268;28;20397;-83
2022/02/26 12:44:38;;;;;;;;;;;5.40;99.90;;;;;;5053254;28;19920;-82
2022/02/26 12:47:05;;;;;;;;;;;5.30;99.90;;;;;;5061492;28;20006;-79
2022/02/26 12:49:31;;;;;;;;;;;5.30;99.90;;;;;;5018718;28;19996;-79
2022/02/26 12:51:57;;;;;;;;;;;5.30;99.90;;;;;;5062632;28;19919;-80
2022/02/26 12:54:33;;;;;;;;;;;5.30;99.90;;;;;;5021790;28;20353;-79
2022/02/26 12:56:59;;;;;;;;;;;5.30;99.90;;;;;;5049289;28;20582;-82
2022/02/26 12:59:26;;;;;;;;;;;5.40;99.90;;;;;;5056538;28;19913;-79
2022/02/26 13:01:52;;;;;;;;;;;5.40;99.90;;;;;;5076656;28;19920;-79
2022/02/26 13:04:21;;;;;;;;;;;5.50;99.90;;;;;;5062274;28;20442;-79
2022/02/26 13:06:51;;;;;;;;;;;5.50;99.90;;;;;;5060367;28;19924;-81
2022/02/26 13:09:17;;;;;;;;;;;5.50;99.90;;;;;;5041335;28;19917;-82
2022/02/26 13:11:47;;;;;;;;;;;5.60;99.90;;;;;;5038468;28;19919;-79
2022/02/26 13:14:13;;;;;;;;;;;5.70;99.90;;;;;;5050547;28;19963;-79
2022/02/26 13:16:41;;;;;;;;;;;5.60;99.90;;;;;;5018091;28;19929;-79
2022/02/26 13:19:07;;;;;;;;;;;5.60;99.90;;;;;;5052741;28;19979;-81
2022/02/26 13:21:37;;;;;;;;;;;5.60;99.90;;;;;;5048765;28;19968;-79
2022/02/26 13:24:04;;;;;;;;;;;5.50;99.90;;;;;;5055343;28;19917;-79
2022/02/26 13:26:29;;;;;;;;;;;5.40;99.90;;;;;;5062082;28;19948;-80
2022/02/26 13:28:55;;;;;;;;;;;5.30;99.90;;;;;;5051980;28;19924;-82
2022/02/26 13:31:30;;;;;;;;;;;5.30;99.90;;;;;;5052618;28;19982;-81
2022/02/26 13:34:28;;;;;;;;;;;5.20;99.90;;;;;;5041008;28;19920;-80
2022/02/26 13:36:54;;;;;;;;;;;5.10;99.90;;;;;;5050411;28;19924;-79
2022/02/26 13:39:20;;;;;;;;;;;5.00;99.90;;;;;;5056490;28;19973;-79
2022/02/26 13:42:02;;;;;;;;;;;5.10;99.90;;;;;;5059697;28;19917;-79
2022/02/26 13:44:38;;;;;;;;;;;5.10;99.90;;;;;;5071018;28;20000;-78
2022/02/26 13:47:07;;;;;;;;;;;5.20;99.90;;;;;;5055865;28;19916;-78
2022/02/26 13:49:34;;;;;;;;;;;5.20;99.90;;;;;;5063349;28;19913;-79
2022/02/26 13:52:04;;;;;;;;;;;5.20;99.90;;;;;;5063472;28;20001;-81
2022/02/26 13:54:30;;;;;;;;;;;5.20;99.90;;;;;;5063603;28;19913;-79
2022/02/26 13:56:57;;;;;;;;;;;5.20;99.90;;;;;;5038710;28;19924;-79
2022/02/26 13:59:26;;;;;;;;;;;5.20;99.90;;;;;;5055136;28;20337;-80
2022/02/26 14:01:53;;;;;;;;;;;5.20;99.90;;;;;;5046401;28;19944;-79
2022/02/26 14:04:19;;;;;;;;;;;5.10;99.90;;;;;;5047496;28;19951;-79
2022/02/26 14:06:46;;;;;;;;;;;5.00;99.90;;;;;;5056843;28;19917;-80
2022/02/26 14:09:16;;;;;;;;;;;5.00;99.90;;;;;;5050508;28;19917;-81
2022/02/26 14:11:41;;;;;;;;;;;4.90;99.90;;;;;;5054600;28;19970;-79
2022/02/26 14:14:21;;;;;;;;;;;4.90;99.90;;;;;;5047687;28;19917;-79
2022/02/26 14:16:47;;;;;;;;;;;4.90;99.90;;;;;;5050779;28;19924;-82
2022/02/26 14:19:14;;;;;;;;;;;4.90;99.90;;;;;;5045623;28;19917;-79
2022/02/26 14:21:39;;;;;;;;;;;4.90;99.90;;;;;;5058343;28;19917;-79
2022/02/26 14:24:06;;;;;;;;;;;4.90;99.90;;;;;;5043755;28;19917;-79
2022/02/26 14:26:31;;;;;;;;;;;4.90;99.90;;;;;;5065139;28;19917;-77
2022/02/26 14:29:01;;;;;;;;;;;4.90;99.90;;;;;;5047751;28;19936;-82
2022/02/26 14:31:27;;;;;;;;;;;5.00;99.90;;;;;;5061450;28;19959;-79